Time;durP1;ratioP1;P1;durP2;ratioP2;P2;SDS_P1;SDS_P2;PMS_P1;PMS_P2;Temp;Humidity;BMP_temperature;BMP_pressure;BME280_temperature;BME280_humidity;BME280_pressure;Samples;Min_cycle;Max_cycle;Signal;HPM_P1;HPM_P2
2022/12/20 00:00:57;;;;;;;5.75;2.88;;;;;;;13.98;100.00;101189.91;5088161;28;20265;-50
2022/12/20 00:03:23;;;;;;;5.50;2.63;;;;;;;13.83;100.00;101195.53;5084931;28;20036;-52
2022/12/20 00:05:48;;;;;;;4.40;2.67;;;;;;;13.79;100.00;101178.97;5079734;28;20044;-51
2022/12/20 00:08:14;;;;;;;8.45;2.67;;;;;;;14.02;100.00;101188.44;5082604;28;20093;-53
2022/12/20 00:10:43;;;;;;;6.43;2.72;;;;;;;14.05;100.00;101199.63;5075020;28;20055;-50
2022/12/20 00:13:09;;;;;;;7.13;2.50;;;;;;;13.90;100.00;101213.28;5078593;28;20037;-54
2022/12/20 00:15:36;;;;;;;4.63;2.88;;;;;;;14.06;100.00;101203.13;5080585;28;20276;-49
2022/12/20 00:18:02;;;;;;;7.30;2.60;;;;;;;14.19;100.00;101195.03;5080414;28;20089;-49
2022/12/20 00:20:28;;;;;;;5.57;3.13;;;;;;;13.93;100.00;101192.41;5078560;28;20331;-49
2022/12/20 00:22:54;;;;;;;5.80;2.07;;;;;;;14.26;100.00;101207.63;5080446;28;20059;-49
2022/12/20 00:25:21;;;;;;;4.95;2.53;;;;;;;14.29;100.00;101199.97;5080597;28;20277;-48
2022/12/20 00:27:47;;;;;;;6.18;2.78;;;;;;;14.21;100.00;101202.91;5083021;28;20033;-51
2022/12/20 00:30:15;;;;;;;6.90;2.87;;;;;;;14.29;100.00;101210.75;5083360;28;20032;-53
2022/12/20 00:32:41;;;;;;;;;;;;;;;14.43;100.00;101200.75;5080994;28;20285;-54
2022/12/20 00:35:07;;;;;;;4.17;2.63;;;;;;;14.39;100.00;101194.16;5080211;28;19948;-52
2022/12/20 00:37:33;;;;;;;4.65;2.40;;;;;;;14.24;100.00;101191.72;5080716;28;20040;-50
2022/12/20 00:39:58;;;;;;;6.20;2.33;;;;;;;14.47;100.00;101179.66;5079022;28;20068;-52
2022/12/20 00:42:24;;;;;;;7.37;2.40;;;;;;;14.54;100.00;101179.63;5080966;28;20048;-50
2022/12/20 00:44:49;;;;;;;4.70;2.47;;;;;;;14.07;100.00;101185.97;5082647;28;20047;-54
2022/12/20 00:47:15;;;;;;;6.00;2.47;;;;;;;14.53;100.00;101186.84;5076427;28;20079;-52
2022/12/20 00:49:40;;;;;;;5.47;2.70;;;;;;;14.29;100.00;101185.69;5080565;28;20290;-51
2022/12/20 00:52:06;;;;;;;9.40;3.20;;;;;;;14.33;100.00;101176.19;5081321;28;20047;-53
2022/12/20 00:54:32;;;;;;;;;;;;;;;14.59;100.00;101160.97;5078105;28;20029;-48
2022/12/20 00:56:58;;;;;;;3.80;2.47;;;;;;;14.48;100.00;101173.22;5079503;28;19963;-54
2022/12/20 00:59:24;;;;;;;5.07;2.33;;;;;;;14.40;100.00;101158.13;5079643;28;20270;-50
2022/12/20 01:01:50;;;;;;;7.03;2.53;;;;;;;14.52;100.00;101158.28;5082703;28;20052;-53
2022/12/20 01:04:18;;;;;;;8.00;2.90;;;;;;;14.24;100.00;101172.06;5077345;28;20032;-54
2022/12/20 01:06:44;;;;;;;6.82;2.80;;;;;;;14.03;100.00;101169.44;5079480;28;20278;-54
2022/12/20 01:09:10;;;;;;;7.10;3.30;;;;;;;14.22;100.00;101176.81;5075588;28;20061;-53
2022/12/20 01:11:37;;;;;;;4.43;2.50;;;;;;;13.95;100.00;101176.88;5079421;28;20041;-53
2022/12/20 01:14:14;;;;;;;7.33;3.17;;;;;;;14.00;100.00;101182.47;5077052;28;20320;-50
2022/12/20 01:16:45;;;;;;;8.77;2.90;;;;;;;14.05;100.00;101171.88;5083648;28;20325;-53
2022/12/20 01:19:14;;;;;;;5.80;2.57;;;;;;;13.78;100.00;101171.94;5080963;28;20029;-53
2022/12/20 01:21:43;;;;;;;5.90;2.77;;;;;;;13.62;100.00;101173.19;5074112;28;20278;-52
2022/12/20 01:24:11;;;;;;;6.00;2.97;;;;;;;13.55;100.00;101175.88;5074563;28;20273;-53
2022/12/20 01:26:36;;;;;;;7.20;3.07;;;;;;;13.50;100.00;101180.25;5074186;28;20282;-52
2022/12/20 01:29:02;;;;;;;10.90;3.22;;;;;;;13.34;100.00;101185.75;5076744;28;20274;-56
2022/12/20 01:31:30;;;;;;;10.77;3.60;;;;;;;13.27;100.00;101190.31;5080932;28;20041;-53
2022/12/20 01:33:55;;;;;;;11.60;3.60;;;;;;;13.01;100.00;101194.59;5077904;28;20277;-57
2022/12/20 01:36:28;;;;;;;15.35;3.42;;;;;;;13.11;100.00;101185.31;5078093;28;20085;-57
2022/12/20 01:38:59;;;;;;;9.47;3.70;;;;;;;13.15;100.00;101183.91;5078710;28;20029;-59
2022/12/20 01:41:26;;;;;;;9.27;4.00;;;;;;;13.06;100.00;101180.56;5080447;28;20365;-59
2022/12/20 01:44:00;;;;;;;29.13;5.43;;;;;;;12.47;100.00;101172.13;5081643;28;20261;-58
2022/12/20 01:46:29;;;;;;;10.40;4.40;;;;;;;12.94;100.00;101177.66;5077805;28;20285;-60
2022/12/20 01:49:13;;;;;;;20.27;5.40;;;;;;;13.11;100.00;101161.16;5074992;28;20281;-57
2022/12/20 01:51:45;;;;;;;10.30;3.93;;;;;;;12.93;100.00;101157.22;5079447;28;20254;-57
2022/12/20 01:54:22;;;;;;;10.17;4.73;;;;;;;13.01;100.00;101161.53;5079463;28;20311;-57
2022/12/20 01:56:54;;;;;;;7.40;4.23;;;;;;;13.10;100.00;101154.13;5072137;28;20306;-58
2022/12/20 01:59:21;;;;;;;11.13;4.67;;;;;;;13.16;100.00;101142.59;5082355;28;20268;-56
2022/12/20 02:01:47;;;;;;;10.13;4.67;;;;;;;13.11;100.00;101143.19;5078664;28;20338;-58
2022/12/20 02:04:13;;;;;;;12.20;5.53;;;;;;;12.99;100.00;101132.22;5078441;28;20284;-55
2022/12/20 02:06:39;;;;;;;7.90;5.65;;;;;;;13.71;100.00;101128.94;5079687;28;20033;-57
2022/12/20 02:09:06;;;;;;;9.87;5.13;;;;;;;13.09;100.00;101147.94;5080417;28;20037;-57
2022/12/20 02:11:48;;;;;;;9.87;6.50;;;;;;;13.21;100.00;101126.69;5082235;28;20024;-58
2022/12/20 02:14:26;;;;;;;13.87;6.03;;;;;;;12.88;100.00;101114.03;5077273;28;20269;-58
2022/12/20 02:17:06;;;;;;;14.93;5.87;;;;;;;12.88;100.00;101116.72;5076780;28;20323;-57
2022/12/20 02:20:00;;;;;;;10.50;4.50;;;;;;;12.83;100.00;101117.34;5076363;28;20269;-57
2022/12/20 02:22:50;;;;;;;14.50;5.57;;;;;;;13.04;100.00;101116.34;5078209;28;20269;-57
2022/12/20 02:25:37;;;;;;;8.53;4.80;;;;;;;13.03;100.00;101128.09;5082142;28;20307;-54
2022/12/20 02:28:08;;;;;;;13.33;5.90;;;;;;;13.24;100.00;101134.31;5073874;28;20769;-56
2022/12/20 02:30:38;;;;;;;14.00;6.37;;;;;;;13.29;100.00;101128.34;5077930;28;20277;-58
2022/12/20 02:33:10;;;;;;;10.07;5.77;;;;;;;13.49;100.00;101120.28;5075082;28;20262;-54
2022/12/20 02:35:37;;;;;;;11.07;5.57;;;;;;;13.13;100.00;101126.88;5078964;28;20276;-53
2022/12/20 02:38:25;;;;;;;12.00;6.13;;;;;;;13.28;100.00;101114.06;5071170;28;20292;-56
2022/12/20 02:40:56;;;;;;;12.13;6.65;;;;;;;13.19;100.00;101110.75;5080126;28;20300;-53
2022/12/20 02:46:10;;;;;;;10.87;6.50;;;;;;;13.14;100.00;101110.56;5080529;28;20274;-55
2022/12/20 02:48:37;;;;;;;13.43;5.50;;;;;;;12.91;100.00;101102.88;5078829;28;20304;-55
2022/12/20 02:51:05;;;;;;;12.33;6.37;;;;;;;12.91;100.00;101106.41;5080490;28;20273;-55
2022/12/20 02:53:32;;;;;;;11.53;6.43;;;;;;;13.10;100.00;101095.91;5074184;28;20360;-54
2022/12/20 02:56:25;;;;;;;10.73;5.50;;;;;;;13.10;100.00;101098.59;5076189;28;20286;-56
2022/12/20 02:59:01;;;;;;;13.63;6.20;;;;;;;13.11;100.00;101099.38;5075540;28;20269;-58
2022/12/20 03:01:31;;;;;;;15.37;6.77;;;;;;;12.96;100.00;101108.47;5078278;28;20349;-54
2022/12/20 03:03:58;;;;;;;10.40;6.37;;;;;;;13.32;100.00;101093.81;5079417;28;20283;-55
2022/12/20 03:06:24;;;;;;;13.17;6.93;;;;;;;13.08;100.00;101092.59;5081014;28;20285;-56
2022/12/20 03:08:49;;;;;;;11.23;6.25;;;;;;;13.24;100.00;101102.09;5078865;28;20281;-54
2022/12/20 03:11:16;;;;;;;11.98;6.15;;;;;;;13.09;100.00;101098.78;5077320;28;20033;-53
2022/12/20 03:13:41;;;;;;;13.00;6.27;;;;;;;13.17;100.00;101087.84;5077117;28;20123;-54
2022/12/20 03:16:09;;;;;;;;;;;;;;;13.21;100.00;101089.09;5077291;28;20025;-56
2022/12/20 03:18:35;;;;;;;20.80;5.57;;;;;;;13.24;100.00;101085.97;5082272;28;19912;-56
2022/12/20 03:21:00;;;;;;;12.38;5.97;;;;;;;13.14;100.00;101098.97;5081739;28;20063;-54
2022/12/20 03:23:26;;;;;;;17.80;5.93;;;;;;;13.18;100.00;101098.38;5075326;28;20118;-57
2022/12/20 03:25:52;;;;;;;11.57;5.45;;;;;;;13.23;100.00;101097.75;5078614;28;20352;-54
2022/12/20 03:28:31;;;;;;;12.43;5.47;;;;;;;13.44;100.00;101101.28;5074486;28;20041;-56
2022/12/20 03:30:57;;;;;;;13.20;5.82;;;;;;;13.20;100.00;101090.13;5074760;28;20277;-53
2022/12/20 03:33:24;;;;;;;11.93;5.28;;;;;;;13.28;100.00;101106.00;5076684;28;20037;-55
2022/12/20 03:35:49;;;;;;;10.00;5.03;;;;;;;13.22;100.00;101082.69;5074521;28;20045;-54
2022/12/20 03:38:17;;;;;;;13.47;5.53;;;;;;;13.31;100.00;101065.31;5076527;28;20025;-53
2022/12/20 03:40:42;;;;;;;13.73;4.95;;;;;;;13.10;100.00;101068.22;5077484;28;20265;-55
2022/12/20 03:43:10;;;;;;;11.53;5.17;;;;;;;13.36;100.00;101078.13;5078403;28;20037;-54
2022/12/20 03:45:36;;;;;;;10.07;5.90;;;;;;;13.30;100.00;101081.66;5072188;28;20294;-56
2022/12/20 03:48:02;;;;;;;11.10;4.78;;;;;;;13.48;100.00;101086.41;5061567;28;20028;-54
2022/12/20 03:50:30;;;;;;;11.27;4.67;;;;;;;13.30;100.00;101085.16;5077722;28;20024;-54
2022/12/20 03:52:55;;;;;;;11.50;4.23;;;;;;;13.18;100.00;101081.44;5076103;28;20281;-53
2022/12/20 03:55:21;;;;;;;12.57;4.60;;;;;;;13.13;100.00;101086.59;5076540;28;20316;-55
2022/12/20 03:57:46;;;;;;;7.72;4.85;;;;;;;13.18;100.00;101095.69;5076173;28;20064;-54
2022/12/20 04:00:25;;;;;;;9.60;4.10;;;;;;;13.30;100.00;101082.47;5075381;28;20039;-51
2022/12/20 04:02:57;;;;;;;7.83;3.80;;;;;;;13.12;100.00;101075.03;5072965;28;20273;-56
2022/12/20 04:05:22;;;;;;;10.45;4.57;;;;;;;13.15;100.00;101090.72;5080570;28;20752;-52
2022/12/20 04:07:49;;;;;;;8.77;3.90;;;;;;;13.33;100.00;101062.44;5080535;28;20056;-55
2022/12/20 04:10:14;;;;;;;13.40;4.57;;;;;;;13.14;100.00;101070.28;5075178;28;20025;-55
2022/12/20 04:12:40;;;;;;;12.90;4.18;;;;;;;13.19;100.00;101075.03;5082432;28;20036;-57
2022/12/20 04:15:09;;;;;;;7.23;3.67;;;;;;;13.29;100.00;101062.00;5078599;28;20044;-54
2022/12/20 04:17:38;;;;;;;8.40;4.13;;;;;;;13.30;100.00;101063.66;5080741;28;20261;-50
2022/12/20 04:20:17;;;;;;;10.23;4.00;;;;;;;13.39;100.00;101055.41;5082692;28;20308;-53
2022/12/20 04:22:47;;;;;;;11.20;4.50;;;;;;;13.48;100.00;101059.53;5076132;28;20033;-57
2022/12/20 04:25:16;;;;;;;10.13;4.10;;;;;;;13.49;100.00;101050.44;5078953;28;20283;-55
2022/12/20 04:27:41;;;;;;;9.13;4.10;;;;;;;13.72;100.00;101041.09;5082307;28;20281;-55
2022/12/20 04:30:08;;;;;;;6.93;3.97;;;;;;;13.40;100.00;101063.22;5080134;28;20270;-56
2022/12/20 04:32:34;;;;;;;10.17;3.80;;;;;;;13.64;100.00;101057.44;5082575;28;20048;-53
2022/12/20 04:35:00;;;;;;;9.30;4.40;;;;;;;13.55;100.00;101065.72;5081763;28;20274;-53
2022/12/20 04:37:25;;;;;;;16.92;4.25;;;;;;;13.49;100.00;101066.56;5079054;28;20039;-52
2022/12/20 04:39:54;;;;;;;7.73;4.43;;;;;;;13.51;100.00;101069.06;5079350;28;20029;-53
2022/12/20 04:42:23;;;;;;;8.73;3.93;;;;;;;13.64;100.00;101055.56;5076194;28;20304;-52
2022/12/20 04:44:51;;;;;;;8.07;4.47;;;;;;;13.61;100.00;101083.72;5078110;28;20270;-51
2022/12/20 04:47:22;;;;;;;7.07;3.50;;;;;;;13.60;100.00;101062.41;5066175;28;20285;-52
2022/12/20 04:49:47;;;;;;;8.15;3.53;;;;;;;13.38;100.00;101069.84;5082162;28;20289;-54
2022/12/20 04:54:57;;;;;;;8.50;3.77;;;;;;;13.20;100.00;101072.13;5077604;28;20032;-51
2022/12/20 04:57:27;;;;;;;9.33;4.20;;;;;;;13.24;100.00;101075.25;5074924;28;20381;-52
2022/12/20 04:59:53;;;;;;;7.68;3.78;;;;;;;13.16;100.00;101056.66;5079610;28;20284;-56
2022/12/20 05:02:19;;;;;;;11.67;4.63;;;;;;;13.39;100.00;101050.03;5079793;28;20036;-56
2022/12/20 05:04:50;;;;;;;8.07;4.07;;;;;;;13.33;100.00;101065.09;5078540;28;20352;-54
2022/12/20 05:07:16;;;;;;;6.88;4.07;;;;;;;13.24;100.00;101047.53;5077759;28;20278;-56
2022/12/20 05:09:47;;;;;;;7.90;3.90;;;;;;;13.25;100.00;101049.19;5078148;28;20028;-58
2022/12/20 05:12:12;;;;;;;49.17;7.10;;;;;;;13.34;100.00;101040.72;5077087;28;20273;-54
2022/12/20 05:14:38;;;;;;;11.23;4.93;;;;;;;13.45;100.00;101025.03;5077778;28;20057;-56
2022/12/20 05:17:03;;;;;;;12.87;5.53;;;;;;;13.65;100.00;101011.53;5076003;28;20280;-55
2022/12/20 05:19:29;;;;;;;9.18;5.05;;;;;;;13.61;100.00;101021.91;5061906;28;20043;-51
2022/12/20 05:27:35;;;;;;;11.73;4.57;;;;;;;13.32;100.00;101026.66;5084608;28;20312;-56
2022/12/20 05:30:03;;;;;;;13.13;4.93;;;;;;;13.43;100.00;101027.09;5075895;28;20301;-60
2022/12/20 05:32:29;;;;;;;10.03;4.80;;;;;;;13.51;100.00;101026.88;5079368;28;20278;-54
2022/12/20 05:34:55;;;;;;;7.60;4.43;;;;;;;13.69;100.00;101011.94;5076780;28;20350;-57
2022/12/20 05:37:20;;;;;;;7.88;4.90;;;;;;;13.54;100.00;100999.59;5073379;28;20039;-57
2022/12/20 05:39:47;;;;;;;11.93;4.78;;;;;;;13.46;100.00;100999.81;5074834;28;20033;-56
2022/12/20 05:42:17;;;;;;;11.97;4.67;;;;;;;13.61;100.00;100997.72;5077722;28;20477;-55
2022/12/20 05:44:43;;;;;;;10.10;4.72;;;;;;;13.71;100.00;100999.94;5077802;28;20294;-59
2022/12/20 05:47:09;;;;;;;8.98;4.57;;;;;;;13.85;100.00;100997.19;5068524;28;20067;-56
2022/12/20 05:49:36;;;;;;;11.10;4.27;;;;;;;13.74;100.00;100982.56;5073273;28;20053;-56
2022/12/20 05:52:05;;;;;;;11.40;4.40;;;;;;;13.79;100.00;100982.75;5077626;28;20277;-59
2022/12/20 05:54:33;;;;;;;9.93;4.70;;;;;;;13.71;100.00;100983.81;5081302;28;20290;-57
2022/12/20 05:57:04;;;;;;;9.80;4.90;;;;;;;13.72;100.00;100984.66;5076290;28;20264;-57
2022/12/20 05:59:38;;;;;;;8.90;5.00;;;;;;;13.72;100.00;100981.97;5077905;28;20270;-55
2022/12/20 06:02:07;;;;;;;12.30;5.40;;;;;;;13.62;100.00;100975.19;5075468;28;20329;-55
2022/12/20 06:04:34;;;;;;;8.53;4.43;;;;;;;13.71;100.00;100985.69;5070818;28;20322;-55
2022/12/20 06:07:05;;;;;;;8.67;5.13;;;;;;;13.94;100.00;100968.22;5070887;28;20300;-57
2022/12/20 06:09:31;;;;;;;12.73;5.00;;;;;;;13.98;100.00;100967.59;5073296;28;20288;-56
2022/12/20 06:12:05;;;;;;;11.10;5.63;;;;;;;14.12;100.00;100957.56;5074537;28;20147;-57
2022/12/20 06:14:32;;;;;;;9.90;4.93;;;;;;;14.09;100.00;100955.31;5073581;28;20283;-55
2022/12/20 06:16:59;;;;;;;11.13;5.17;;;;;;;13.99;100.00;100949.56;5090708;28;20309;-53
2022/12/20 06:19:25;;;;;;;5.43;3.87;;;;;;;14.08;100.00;100956.34;5069624;28;20278;-56
2022/12/20 06:21:57;;;;;;;9.87;4.10;;;;;;;14.46;100.00;100943.91;5072927;28;20041;-52
2022/12/20 06:24:30;;;;;;;6.63;3.57;;;;;;;14.15;100.00;100949.06;5075624;28;20258;-56
2022/12/20 06:26:57;;;;;;;14.35;4.28;;;;;;;14.17;100.00;100946.13;5070616;28;20270;-57
2022/12/20 06:29:24;;;;;;;9.03;4.33;;;;;;;14.22;100.00;100956.25;5077073;28;20091;-54
2022/12/20 06:31:56;;;;;;;8.60;4.03;;;;;;;14.25;100.00;100950.44;5077204;28;20359;-54
2022/12/20 06:34:22;;;;;;;7.13;3.75;;;;;;;14.03;100.00;100940.03;5056688;28;20278;-54
2022/12/20 06:36:47;;;;;;;7.13;3.87;;;;;;;13.99;100.00;100942.34;5077185;28;20035;-52
2022/12/20 06:39:18;;;;;;;9.37;3.57;;;;;;;14.12;100.00;100938.75;5077692;28;20056;-54
2022/12/20 06:42:04;;;;;;;7.63;3.13;;;;;;;14.18;100.00;100953.16;5077826;28;20810;-58
2022/12/20 06:44:33;;;;;;;12.27;2.93;;;;;;;14.10;100.00;100948.91;5078679;28;20277;-52
2022/12/20 06:46:59;;;;;;;6.88;3.00;;;;;;;14.31;100.00;100966.53;5076600;28;20348;-56
2022/12/20 06:49:24;;;;;;;6.10;3.23;;;;;;;14.15;100.00;100967.88;5072333;28;20049;-52
2022/12/20 06:51:50;;;;;;;8.73;3.05;;;;;;;14.33;100.00;100969.03;5077330;28;20029;-54
2022/12/20 06:54:19;;;;;;;7.40;2.90;;;;;;;14.38;100.00;100955.75;5073930;28;20041;-55
2022/12/20 06:56:44;;;;;;;4.43;2.37;;;;;;;14.05;100.00;100983.66;5074085;28;20349;-56
2022/12/20 06:59:11;;;;;;;8.38;3.22;;;;;;;14.39;100.00;100951.16;5079481;28;20041;-53
2022/12/20 07:01:36;;;;;;;5.23;2.37;;;;;;;14.26;100.00;100952.94;5082559;28;20068;-55
2022/12/20 07:04:02;;;;;;;11.13;2.65;;;;;;;14.47;100.00;100954.41;5081143;28;20033;-54
2022/12/20 07:06:29;;;;;;;10.48;3.80;;;;;;;14.25;100.00;100958.50;5083096;28;20044;-51
2022/12/20 07:08:55;;;;;;;5.90;2.37;;;;;;;14.30;100.00;100947.91;5080465;28;20024;-55
2022/12/20 07:11:20;;;;;;;5.93;2.33;;;;;;;14.39;100.00;100962.78;5078818;28;20258;-55
2022/12/20 07:13:46;;;;;;;7.18;2.88;;;;;;;14.46;100.00;100958.16;5078334;28;20028;-52
2022/12/20 07:16:11;;;;;;;6.13;2.83;;;;;;;14.68;100.00;100965.84;5081380;28;20022;-52
2022/12/20 07:18:37;;;;;;;5.32;2.75;;;;;;;14.57;100.00;100985.41;5081165;28;20026;-54
2022/12/20 07:21:04;;;;;;;4.53;2.40;;;;;;;14.67;100.00;100966.09;5078411;28;20071;-54
2022/12/20 07:23:30;;;;;;;7.30;2.63;;;;;;;14.41;100.00;100970.59;5081101;28;20028;-51
2022/12/20 07:25:59;;;;;;;4.90;2.60;;;;;;;14.30;100.00;100953.28;5080096;28;20278;-53
2022/12/20 07:28:26;;;;;;;7.50;2.77;;;;;;;14.34;100.00;100951.84;5079838;28;20033;-53
2022/12/20 07:30:52;;;;;;;4.77;2.37;;;;;;;14.29;100.00;100951.66;5084282;28;20285;-53
2022/12/20 07:33:18;;;;;;;;;;;;;;;14.27;100.00;100951.88;5075617;28;20270;-51
2022/12/20 07:35:45;;;;;;;7.40;2.10;;;;;;;14.52;100.00;100950.25;5084121;28;19913;-53
2022/12/20 07:38:11;;;;;;;7.77;2.03;;;;;;;14.48;100.00;100963.34;5078495;28;20474;-50
2022/12/20 07:40:40;;;;;;;6.13;2.13;;;;;;;14.36;100.00;100946.22;5080012;28;20261;-52
2022/12/20 07:43:06;;;;;;;4.07;2.27;;;;;;;14.50;100.00;100953.16;5082660;28;20044;-51
2022/12/20 07:45:32;;;;;;;4.32;2.40;;;;;;;14.47;100.00;100965.19;5084837;28;20272;-53
2022/12/20 07:47:58;;;;;;;7.55;2.58;;;;;;;14.15;100.00;100980.50;5078271;28;20104;-54
2022/12/20 07:50:26;;;;;;;4.03;2.20;;;;;;;14.31;100.00;100969.22;5085110;28;20049;-51
2022/12/20 07:52:52;;;;;;;5.03;2.40;;;;;;;14.37;100.00;100966.72;5081766;28;20071;-54
2022/12/20 07:55:18;;;;;;;5.13;2.25;;;;;;;14.28;100.00;100971.53;5080640;28;20278;-51
2022/12/20 07:57:56;;;;;;;6.43;2.30;;;;;;;14.14;100.00;100979.69;5078754;28;20036;-51
2022/12/20 08:00:22;;;;;;;6.70;2.30;;;;;;;14.42;100.00;100989.25;5079121;28;20040;-49
2022/12/20 08:02:54;;;;;;;5.77;2.17;;;;;;;14.36;100.00;100968.59;5081679;28;20274;-53
2022/12/20 08:05:20;;;;;;;5.70;1.60;;;;;;;14.14;100.00;100982.38;5082400;28;20025;-50
2022/12/20 08:07:47;;;;;;;5.97;2.92;;;;;;;14.19;100.00;100979.84;5079980;28;20315;-50
2022/12/20 08:10:16;;;;;;;4.03;1.87;;;;;;;14.15;100.00;100988.56;5077694;28;20040;-52
2022/12/20 08:12:44;;;;;;;6.57;2.60;;;;;;;14.34;100.00;100970.69;5082131;28;20268;-54
2022/12/20 08:15:09;;;;;;;5.67;2.23;;;;;;;14.29;100.00;100987.47;5079253;28;20274;-54
2022/12/20 08:17:35;;;;;;;;;;;;;;;14.22;100.00;100981.31;5077860;28;20284;-55
2022/12/20 08:20:02;;;;;;;4.63;2.40;;;;;;;14.32;100.00;100973.56;5079280;28;19980;-54
2022/12/20 08:22:27;;;;;;;;;;;;;;;14.31;100.00;101006.91;5080940;28;20037;-52
2022/12/20 08:24:53;;;;;;;6.00;3.10;;;;;;;14.53;100.00;100971.56;5081767;28;19976;-49
2022/12/20 08:27:18;;;;;;;6.27;2.70;;;;;;;14.71;100.00;100970.81;5079896;28;20037;-53
2022/12/20 08:29:44;;;;;;;4.53;2.30;;;;;;;14.49;100.00;100963.09;5078687;28;20297;-57
2022/12/20 08:32:11;;;;;;;6.50;2.30;;;;;;;14.71;100.00;100964.63;5080784;28;20060;-52
2022/12/20 08:34:37;;;;;;;5.13;2.10;;;;;;;14.45;100.00;100969.97;5085227;28;20056;-54
2022/12/20 08:37:03;;;;;;;3.63;2.03;;;;;;;14.44;100.00;100960.25;5079591;28;20261;-50
2022/12/20 08:39:30;;;;;;;10.27;2.20;;;;;;;14.60;100.00;100972.34;5080388;28;20029;-55
2022/12/20 08:41:55;;;;;;;4.93;2.37;;;;;;;14.39;100.00;100968.16;5079377;28;20029;-53
2022/12/20 08:44:20;;;;;;;5.80;2.23;;;;;;;14.39;100.00;100973.53;5080370;28;20297;-54
2022/12/20 08:46:46;;;;;;;7.85;2.55;;;;;;;13.99;100.00;100968.38;5079115;28;20033;-53
2022/12/20 08:49:11;;;;;;;8.53;2.17;;;;;;;14.01;100.00;100977.91;5082765;28;20047;-51
2022/12/20 08:51:37;;;;;;;8.93;3.10;;;;;;;13.73;100.00;100972.84;5083097;28;20036;-52
2022/12/20 08:54:03;;;;;;;5.57;2.35;;;;;;;13.60;100.00;100979.91;5081756;28;20033;-52
2022/12/20 08:56:28;;;;;;;6.87;2.50;;;;;;;13.71;100.00;100972.25;5074769;28;20049;-52
2022/12/20 08:58:53;;;;;;;4.47;2.53;;;;;;;13.75;100.00;100989.59;5083864;28;20056;-53
2022/12/20 09:01:22;;;;;;;17.13;3.33;;;;;;;13.53;100.00;100973.75;5076622;28;20033;-49
2022/12/20 09:03:48;;;;;;;7.43;3.03;;;;;;;13.55;100.00;100979.72;5084152;28;20113;-52
2022/12/20 09:06:16;;;;;;;6.30;2.78;;;;;;;13.41;100.00;100962.81;5081090;28;20305;-51
2022/12/20 09:08:42;;;;;;;8.73;2.97;;;;;;;13.32;100.00;100962.19;5078431;28;20123;-55
2022/12/20 09:11:08;;;;;;;8.00;2.80;;;;;;;13.40;100.00;100960.34;5080273;28;20281;-53
2022/12/20 09:13:34;;;;;;;15.47;4.00;;;;;;;13.28;100.00;100963.66;5083396;28;20041;-54
2022/12/20 09:16:04;;;;;;;12.48;3.40;;;;;;;13.09;100.00;100964.53;5076962;28;20100;-50
2022/12/20 09:18:31;;;;;;;15.13;3.73;;;;;;;13.30;100.00;100960.78;5078424;28;20048;-55
2022/12/20 09:21:00;;;;;;;14.88;3.58;;;;;;;13.28;100.00;100963.66;5077496;28;20280;-57
2022/12/20 09:23:27;;;;;;;14.63;4.37;;;;;;;13.47;100.00;100961.16;5084168;28;20056;-59
2022/12/20 09:25:54;;;;;;;11.23;3.07;;;;;;;13.26;100.00;100956.84;5081982;28;20322;-56
2022/12/20 09:28:21;;;;;;;9.80;4.23;;;;;;;13.07;100.00;100967.44;5079364;28;20255;-57
2022/12/20 09:30:47;;;;;;;7.87;3.90;;;;;;;13.13;100.00;100963.06;5082845;28;20285;-59
2022/12/20 09:33:12;;;;;;;6.00;3.07;;;;;;;13.33;100.00;100973.78;5077686;28;20277;-57
2022/12/20 09:35:45;;;;;;;13.65;4.25;;;;;;;13.28;100.00;100947.56;5084945;28;20116;-56
2022/12/20 09:38:10;;;;;;;6.73;3.70;;;;;;;13.26;100.00;100954.16;5081991;28;20059;-58
2022/12/20 09:40:37;;;;;;;13.43;3.60;;;;;;;13.09;100.00;100967.22;5081030;28;20274;-57
2022/12/20 09:43:07;;;;;;;12.73;3.77;;;;;;;13.20;100.00;100988.06;5074996;28;20145;-57
2022/12/20 09:45:36;;;;;;;8.80;3.90;;;;;;;13.24;100.00;100964.28;5078761;28;20261;-58
2022/12/20 09:48:04;;;;;;;8.33;4.70;;;;;;;13.64;100.00;100963.41;5079498;28;20270;-57
2022/12/20 09:50:47;;;;;;;21.23;5.67;;;;;;;13.56;100.00;100956.41;5080285;28;20269;-57
2022/12/20 09:53:33;;;;;;;11.53;4.47;;;;;;;13.39;100.00;100953.31;5082462;28;20281;-57
2022/12/20 09:56:08;;;;;;;5.83;3.60;;;;;;;13.66;100.00;100954.06;5077889;28;20274;-59
2022/12/20 09:58:43;;;;;;;20.77;4.03;;;;;;;13.34;100.00;100953.94;5072520;28;20277;-58
2022/12/20 10:01:20;;;;;;;17.53;3.87;;;;;;;13.25;100.00;100958.72;5076310;28;20294;-59
2022/12/20 10:03:45;;;;;;;0.10;0.10;;;;;;;13.14;100.00;100965.56;5078045;28;20328;-55
2022/12/20 10:06:52;;;;;;;0.87;0.83;;;;;;;13.23;100.00;100978.75;5078602;28;20300;-59
2022/12/20 10:09:39;;;;;;;0.10;0.10;;;;;;;13.24;100.00;100973.19;5079177;28;20282;-59
2022/12/20 10:12:20;;;;;;;0.87;0.87;;;;;;;13.23;100.00;100970.69;5077006;28;20289;-59
2022/12/20 10:15:16;;;;;;;0.47;0.47;;;;;;;13.32;100.00;100972.94;5082649;28;20291;-57
2022/12/20 10:18:08;;;;;;;0.30;0.30;;;;;;;13.43;100.00;100973.38;5074723;28;20289;-57
2022/12/20 10:20:43;;;;;;;0.10;0.10;;;;;;;13.48;100.00;100984.31;5073973;28;20266;-59
2022/12/20 10:23:29;;;;;;;0.20;0.20;;;;;;;13.47;100.00;100966.53;5073569;28;20262;-58
2022/12/20 10:25:56;;;;;;;0.10;0.10;;;;;;;13.48;100.00;100957.44;5075875;28;20273;-56
2022/12/20 10:28:28;;;;;;;0.10;0.10;;;;;;;13.45;100.00;100958.69;5080423;28;20293;-58
2022/12/20 10:30:54;;;;;;;2.30;1.20;;;;;;;13.37;100.00;100961.59;5074812;28;20300;-61
2022/12/20 10:33:22;;;;;;;0.47;0.47;;;;;;;13.52;100.00;100952.50;5074536;28;20280;-52
2022/12/20 10:35:49;;;;;;;2.53;1.30;;;;;;;13.43;100.00;100954.56;5076404;28;20044;-55
2022/12/20 10:38:17;;;;;;;0.60;0.60;;;;;;;13.25;100.00;100947.97;5076215;28;20293;-56
2022/12/20 10:40:57;;;;;;;0.40;0.40;;;;;;;13.29;100.00;100945.72;5079815;28;20270;-58
2022/12/20 10:43:23;;;;;;;0.37;0.37;;;;;;;13.37;100.00;100941.94;5077872;28;20273;-58
2022/12/20 10:46:00;;;;;;;0.50;0.50;;;;;;;13.34;100.00;100946.69;5077462;28;20301;-58
2022/12/20 10:48:41;;;;;;;0.45;0.45;;;;;;;13.23;100.00;100954.59;5081137;28;20032;-57
2022/12/20 10:51:11;;;;;;;1.17;0.63;;;;;;;13.62;100.00;100937.56;5076186;28;20052;-56
2022/12/20 10:53:49;;;;;;;0.03;0.03;;;;;;;13.65;100.00;100935.47;5076326;28;20262;-57
2022/12/20 10:56:26;;;;;;;0.10;0.10;;;;;;;13.83;100.00;100946.34;5076331;28;20266;-57
2022/12/20 10:58:56;;;;;;;0.35;0.35;;;;;;;13.68;100.00;100925.13;5075721;28;20273;-57
2022/12/20 11:01:25;;;;;;;0.20;0.20;;;;;;;13.52;100.00;100929.13;5076802;28;20089;-57
2022/12/20 11:03:59;;;;;;;0.20;0.20;;;;;;;13.56;100.00;100948.34;5074656;28;20262;-58
2022/12/20 11:06:37;;;;;;;0.00;0.00;;;;;;;13.70;100.00;100949.91;5080278;28;20342;-58
2022/12/20 11:09:18;;;;;;;;;;;;;;;13.70;100.00;100932.97;5075317;28;20263;-58
2022/12/20 11:12:14;;;;;;;0.10;0.10;;;;;;;13.83;100.00;100922.13;5077949;28;19922;-58
2022/12/20 11:14:43;;;;;;;0.00;0.00;;;;;;;13.71;100.00;100943.50;5082170;28;20303;-57
2022/12/20 11:17:11;;;;;;;1.17;0.97;;;;;;;13.97;100.00;100922.91;5079665;28;20262;-59
2022/12/20 11:20:18;;;;;;;0.10;0.10;;;;;;;14.02;100.00;100908.81;5083769;28;20273;-57
2022/12/20 11:23:14;;;;;;;0.10;0.10;;;;;;;13.88;100.00;100911.59;5075526;28;20280;-59
2022/12/20 11:25:52;;;;;;;0.67;0.30;;;;;;;13.93;100.00;100915.50;5082253;28;20289;-59
2022/12/20 11:28:31;;;;;;;0.30;0.30;;;;;;;13.73;100.00;100913.72;5081852;28;20284;-56
2022/12/20 11:31:18;;;;;;;0.27;0.27;;;;;;;13.84;100.00;100914.91;5076677;28;20288;-58
2022/12/20 11:34:22;;;;;;;4.05;1.33;;;;;;;13.88;100.00;100913.44;5078150;28;20262;-58
2022/12/20 11:37:17;;;;;;;0.10;0.10;;;;;;;13.85;100.00;100914.72;5079843;28;20071;-52
2022/12/20 11:40:04;;;;;;;0.53;0.53;;;;;;;13.54;100.00;100910.91;5084928;28;20254;-59